createdAt,value
2023-02-28T00:00:19.039Z,102634.88
2023-02-28T00:02:45.382Z,102637.75
2023-02-28T00:05:12.284Z,102634.88
2023-02-28T00:07:38.614Z,102644.88
2023-02-28T00:10:05.462Z,102642.00
2023-02-28T00:12:31.781Z,102642.59
2023-02-28T00:14:58.097Z,102649.09
2023-02-28T00:17:24.717Z,102641.81
2023-02-28T00:19:51.305Z,102639.72
2023-02-28T00:22:21.005Z,102633.38
2023-02-28T00:24:47.903Z,102642.00
2023-02-28T00:27:14.490Z,102644.13
2023-02-28T00:29:40.808Z,102644.88
2023-02-28T00:32:07.188Z,102643.34
2023-02-28T00:34:38.505Z,102641.81
2023-02-28T00:37:05.780Z,102647.56
2023-02-28T00:39:33.889Z,102641.66
2023-02-28T00:42:00.221Z,102639.53
2023-02-28T00:44:26.539Z,102644.53
2023-02-28T00:46:54.942Z,102648.78
2023-02-28T00:49:24.516Z,102641.50
2023-02-28T00:51:50.961Z,102648.78
2023-02-28T00:54:19.485Z,102646.50
2023-02-28T00:56:47.503Z,102647.25
2023-02-28T00:59:14.064Z,102654.56
2023-02-28T01:01:40.438Z,102648.78
2023-02-28T01:04:06.899Z,102651.03
2023-02-28T01:06:33.251Z,102657.28
2023-02-28T01:08:59.730Z,102654.56
2023-02-28T01:11:26.260Z,102647.25
2023-02-28T01:13:53.149Z,102640.00
2023-02-28T01:16:19.471Z,102644.22
2023-02-28T01:18:45.800Z,102650.00
2023-02-28T01:21:13.313Z,102639.84
2023-02-28T01:23:39.977Z,102648.50
2023-02-28T01:26:10.527Z,102644.22
2023-02-28T01:28:39.614Z,102647.09
2023-02-28T01:31:06.430Z,102650.00
2023-02-28T01:33:32.925Z,102633.47
2023-02-28T01:36:19.872Z,102630.59
2023-02-28T01:38:46.209Z,102630.59
2023-02-28T01:41:15.929Z,102630.59
2023-02-28T01:43:45.347Z,102626.97
2023-02-28T01:46:12.752Z,102623.19
2023-02-28T01:48:39.832Z,102621.06
2023-02-28T01:51:11.868Z,102616.69
2023-02-28T01:53:39.067Z,102632.41
2023-02-28T01:56:05.987Z,102625.91
2023-02-28T01:58:32.307Z,102632.41
2023-02-28T02:00:58.662Z,102635.28
2023-02-28T02:03:26.644Z,102626.66
2023-02-28T02:05:52.966Z,102636.81
2023-02-28T02:08:26.227Z,102634.69
2023-02-28T02:10:54.877Z,102622.44
2023-02-28T02:13:35.083Z,102620.91
2023-02-28T02:16:24.288Z,102620.91
2023-02-28T02:18:54.532Z,102631.66
2023-02-28T02:21:35.023Z,102630.16
2023-02-28T02:24:12.649Z,102634.38
2023-02-28T02:26:52.691Z,102625.00
2023-02-28T02:29:31.891Z,102630.00
2023-02-28T02:32:06.272Z,102635.75
2023-02-28T02:34:40.586Z,102627.72
2023-02-28T02:37:12.409Z,102626.38
2023-02-28T02:39:53.753Z,102627.13
2023-02-28T02:42:25.781Z,102633.63
2023-02-28T02:44:56.784Z,102632.88
2023-02-28T02:47:25.124Z,102632.88
2023-02-28T02:49:52.527Z,102627.13
2023-02-28T02:52:19.566Z,102634.22
2023-02-28T02:54:46.506Z,102636.38
2023-02-28T02:57:14.510Z,102629.84
2023-02-28T02:59:41.065Z,102629.09
2023-02-28T03:02:08.067Z,102623.34
2023-02-28T03:04:37.315Z,102615.31
2023-02-28T03:07:03.973Z,102625.47
2023-02-28T03:09:30.302Z,102623.34
2023-02-28T03:11:56.720Z,102624.84
2023-02-28T03:14:23.004Z,102630.59
2023-02-28T03:16:52.468Z,102629.09
2023-02-28T03:19:21.776Z,102634.84
2023-02-28T03:21:56.250Z,102634.09
2023-02-28T03:24:28.207Z,102639.88
2023-02-28T03:26:56.567Z,102644.84
2023-02-28T03:29:46.181Z,102649.09
2023-02-28T03:32:25.892Z,102635.31
2023-02-28T03:34:55.477Z,102643.19
2023-02-28T03:37:22.390Z,102640.31
2023-02-28T03:39:50.238Z,102644.56
2023-02-28T03:42:18.492Z,102641.69
2023-02-28T03:44:46.576Z,102641.06
2023-02-28T03:47:22.316Z,102648.94
2023-02-28T03:49:55.167Z,102641.81
2023-02-28T03:52:21.742Z,102646.22
2023-02-28T03:54:51.916Z,102650.59
2023-02-28T03:57:23.715Z,102640.63
2023-02-28T03:59:51.877Z,102652.88
2023-02-28T04:02:19.489Z,102652.13
2023-02-28T04:04:49.406Z,102650.75
2023-02-28T04:07:16.160Z,102651.38
2023-02-28T04:09:42.484Z,102653.47
2023-02-28T04:12:08.831Z,102656.19
2023-02-28T04:14:35.225Z,102654.84
2023-02-28T04:17:01.545Z,102647.56
2023-02-28T04:19:27.869Z,102650.31
2023-02-28T04:21:54.384Z,102651.66
2023-02-28T04:24:21.664Z,102650.31
2023-02-28T04:26:48.779Z,102655.28
2023-02-28T04:29:16.506Z,102656.06
2023-02-28T04:31:42.873Z,102656.06
2023-02-28T04:34:09.244Z,102654.53
2023-02-28T04:36:35.578Z,102658.00
2023-02-28T04:39:01.932Z,102657.25
2023-02-28T04:41:31.687Z,102658.63
2023-02-28T04:43:58.738Z,102664.38
2023-02-28T04:46:25.089Z,102655.00
2023-02-28T04:48:51.426Z,102664.53
2023-02-28T04:51:18.132Z,102664.53
2023-02-28T04:53:44.518Z,102666.03
2023-02-28T04:56:14.315Z,102666.03
2023-02-28T04:58:40.699Z,102661.81
2023-02-28T05:01:13.584Z,102665.28
2023-02-28T05:03:41.551Z,102669.09
2023-02-28T05:06:08.425Z,102669.09
2023-02-28T05:08:34.757Z,102674.84
2023-02-28T05:11:04.245Z,102674.84
2023-02-28T05:13:30.592Z,102679.09
2023-02-28T05:15:56.961Z,102676.06
2023-02-28T05:18:23.296Z,102681.81
2023-02-28T05:20:49.651Z,102674.53
2023-02-28T05:23:23.328Z,102668.00
2023-02-28T05:25:49.685Z,102675.16
2023-02-28T05:28:16.041Z,102673.03
2023-02-28T05:30:42.377Z,102680.91
2023-02-28T05:33:11.074Z,102678.03
2023-02-28T05:35:38.682Z,102681.50
2023-02-28T05:38:05.053Z,102684.38
2023-02-28T05:40:31.433Z,102684.22
2023-02-28T05:42:57.785Z,102688.47
2023-02-28T05:45:24.111Z,102679.84
2023-02-28T05:47:50.431Z,102693.44
2023-02-28T05:50:16.762Z,102686.19
2023-02-28T05:52:43.490Z,102695.41
2023-02-28T05:55:09.937Z,102701.16
2023-02-28T05:57:36.276Z,102698.44
2023-02-28T06:00:02.807Z,102709.94
2023-02-28T06:02:39.401Z,102711.47
2023-02-28T06:05:05.940Z,102713.47
2023-02-28T06:07:32.300Z,102710.88
2023-02-28T06:09:58.636Z,102713.31
2023-02-28T06:12:24.998Z,102699.97
2023-02-28T06:14:51.319Z,102699.66
2023-02-28T06:17:17.648Z,102707.25
2023-02-28T06:19:44.353Z,102711.53
2023-02-28T06:22:10.704Z,102706.53
2023-02-28T06:24:37.051Z,102717.13
2023-02-28T06:27:05.943Z,102713.03
2023-02-28T06:29:33.245Z,102722.16
2023-02-28T06:31:59.661Z,102721.84
2023-02-28T06:34:26.050Z,102720.91
2023-02-28T06:36:52.421Z,102729.25
2023-02-28T06:39:18.966Z,102727.41
2023-02-28T06:41:54.951Z,102733.47
2023-02-28T06:44:22.285Z,102737.91
2023-02-28T06:46:48.620Z,102733.63
2023-02-28T06:49:15.309Z,102733.63
2023-02-28T06:51:42.537Z,102745.47
2023-02-28T06:54:11.729Z,102742.59
2023-02-28T06:56:38.048Z,102739.25
2023-02-28T06:59:04.473Z,102749.56
2023-02-28T07:01:33.003Z,102747.88
2023-02-28T07:03:59.587Z,102755.34
2023-02-28T07:06:25.943Z,102753.59
2023-02-28T07:08:53.186Z,102754.00
2023-02-28T07:11:19.916Z,102750.22
2023-02-28T07:13:47.557Z,102754.22
2023-02-28T07:16:14.669Z,102751.53
2023-02-28T07:18:41.055Z,102760.53
2023-02-28T07:21:08.460Z,102762.44
2023-02-28T07:23:34.958Z,102756.34
2023-02-28T07:26:01.289Z,102757.06
2023-02-28T07:28:27.622Z,102752.19
2023-02-28T07:30:53.977Z,102763.53
2023-02-28T07:33:20.371Z,102757.84
2023-02-28T07:35:46.732Z,102762.38
2023-02-28T07:38:14.575Z,102762.38
2023-02-28T07:40:40.916Z,102758.34
2023-02-28T07:43:07.235Z,102760.25
2023-02-28T07:45:35.397Z,102766.00
2023-02-28T07:48:01.863Z,102764.03
2023-02-28T07:50:31.881Z,102759.81
2023-02-28T07:52:58.977Z,102773.69
2023-02-28T07:55:25.337Z,102768.22
2023-02-28T07:57:51.661Z,102766.47
2023-02-28T08:00:18.085Z,102762.38
2023-02-28T08:02:44.605Z,102765.03
2023-02-28T08:05:11.080Z,102762.69
2023-02-28T08:07:37.487Z,102764.66
2023-02-28T08:10:03.846Z,102765.03
2023-02-28T08:12:30.252Z,102759.56
2023-02-28T08:14:56.581Z,102760.16
2023-02-28T08:17:22.967Z,102753.94
2023-02-28T08:19:49.304Z,102760.03
2023-02-28T08:22:15.659Z,102758.94
2023-02-28T08:24:42.667Z,102761.06
2023-02-28T08:27:08.985Z,102760.59
2023-02-28T08:29:35.317Z,102755.78
2023-02-28T08:32:02.025Z,102763.03
2023-02-28T08:34:28.442Z,102772.00
2023-02-28T08:36:55.064Z,102764.25
2023-02-28T08:39:21.502Z,102761.06
2023-02-28T08:41:51.150Z,102757.59
2023-02-28T08:44:19.893Z,102766.38
2023-02-28T08:46:46.214Z,102757.91
2023-02-28T08:49:12.630Z,102767.72
2023-02-28T08:51:39.387Z,102770.50
2023-02-28T08:54:05.718Z,102765.63
2023-02-28T08:56:32.049Z,102757.44
2023-02-28T08:58:58.414Z,102766.81
2023-02-28T09:01:28.875Z,102761.19
2023-02-28T09:06:26.909Z,102764.75
2023-02-28T09:08:53.363Z,102759.56
2023-02-28T09:11:20.011Z,102759.28
2023-02-28T09:13:46.574Z,102772.06
2023-02-28T09:16:13.942Z,102771.75
2023-02-28T09:18:40.312Z,102772.09
2023-02-28T09:21:10.586Z,102771.84
2023-02-28T09:23:39.138Z,102764.88
2023-02-28T09:26:05.518Z,102759.41
2023-02-28T09:28:31.861Z,102768.38
2023-02-28T09:30:59.813Z,102763.19
2023-02-28T09:33:26.489Z,102762.44
2023-02-28T09:35:58.197Z,102759.56
2023-02-28T09:38:24.536Z,102765.16
2023-02-28T09:40:51.952Z,102760.00
2023-02-28T09:43:57.868Z,102769.81
2023-02-28T09:46:27.370Z,102758.16
2023-02-28T09:48:53.756Z,102754.25
2023-02-28T09:51:31.688Z,102763.66
2023-02-28T09:54:01.814Z,102760.78
2023-02-28T09:56:32.927Z,102760.63
2023-02-28T09:59:03.345Z,102764.41
2023-02-28T10:01:38.163Z,102766.81
2023-02-28T10:04:05.776Z,102762.69
2023-02-28T10:06:37.548Z,102758.06
2023-02-28T10:09:21.661Z,102764.41
2023-02-28T10:14:21.314Z,102760.28
2023-02-28T10:16:54.586Z,102762.25
2023-02-28T10:19:22.545Z,102762.41
2023-02-28T10:21:50.879Z,102766.34
2023-02-28T10:24:21.744Z,102758.00
2023-02-28T10:26:48.424Z,102755.13
2023-02-28T10:29:14.781Z,102754.56
2023-02-28T10:31:41.272Z,102764.25
2023-02-28T10:34:08.737Z,102755.47
2023-02-28T10:36:36.209Z,102758.34
2023-02-28T10:39:02.686Z,102756.09
2023-02-28T10:41:30.106Z,102762.13
2023-02-28T10:44:12.906Z,102763.66
2023-02-28T10:46:39.553Z,102756.69
2023-02-28T10:49:06.446Z,102758.22
2023-02-28T10:51:37.167Z,102766.97
2023-02-28T10:54:03.530Z,102750.91
2023-02-28T10:56:30.335Z,102752.44
2023-02-28T10:59:09.159Z,102753.66
2023-02-28T11:01:39.735Z,102747.13
2023-02-28T11:04:19.654Z,102752.56
2023-02-28T11:06:46.031Z,102751.53
2023-02-28T11:09:26.049Z,102737.72
2023-02-28T11:11:53.858Z,102735.59
2023-02-28T11:14:24.944Z,102734.38
2023-02-28T11:16:51.270Z,102741.44
2023-02-28T11:19:25.275Z,102733.81
2023-02-28T11:21:58.365Z,102730.59
2023-02-28T11:24:28.349Z,102725.72
2023-02-28T11:26:54.768Z,102712.31
2023-02-28T11:29:27.953Z,102714.16
2023-02-28T11:32:09.600Z,102718.22
2023-02-28T11:34:36.398Z,102699.28
2023-02-28T11:37:05.789Z,102710.81
2023-02-28T11:39:32.436Z,102706.75
2023-02-28T11:41:58.722Z,102699.59
2023-02-28T11:44:24.980Z,102700.03
2023-02-28T11:47:02.097Z,102696.84
2023-02-28T11:49:36.061Z,102692.44
2023-02-28T11:52:04.103Z,102688.66
2023-02-28T11:54:37.468Z,102694.16
2023-02-28T11:57:27.145Z,102701.41
2023-02-28T11:59:57.379Z,102709.47
2023-02-28T12:02:30.771Z,102693.66
2023-02-28T12:05:15.763Z,102700.78
2023-02-28T12:07:50.422Z,102700.97
2023-02-28T12:10:26.949Z,102698.69
2023-02-28T12:13:06.495Z,102704.44
2023-02-28T12:15:45.063Z,102699.97
2023-02-28T12:18:18.698Z,102700.34
2023-02-28T12:20:47.426Z,102699.00
2023-02-28T12:23:20.793Z,102695.44
2023-02-28T12:25:51.567Z,102694.53
2023-02-28T12:28:18.885Z,102689.63
2023-02-28T12:30:49.263Z,102699.28
2023-02-28T12:33:15.651Z,102689.28
2023-02-28T12:35:44.850Z,102684.97
2023-02-28T12:38:18.085Z,102679.50
2023-02-28T12:40:45.481Z,102676.91
2023-02-28T12:43:11.866Z,102675.81
2023-02-28T12:45:41.164Z,102670.03
2023-02-28T12:48:08.940Z,102657.56
2023-02-28T12:50:35.344Z,102663.63
2023-02-28T12:53:03.630Z,102652.22
2023-02-28T12:55:38.484Z,102650.09
2023-02-28T12:58:23.613Z,102640.97
2023-02-28T13:01:02.280Z,102642.16
2023-02-28T13:03:37.840Z,102632.25
2023-02-28T13:06:18.103Z,102631.50
2023-02-28T13:08:51.842Z,102627.38
2023-02-28T13:11:29.738Z,102624.63
2023-02-28T13:14:03.233Z,102620.56
2023-02-28T13:16:29.618Z,102616.13
2023-02-28T13:19:08.720Z,102622.22
2023-02-28T13:21:36.418Z,102621.25
2023-02-28T13:24:04.003Z,102617.47
2023-02-28T13:26:39.179Z,102618.03
2023-02-28T13:29:11.525Z,102616.50
2023-02-28T13:31:56.602Z,102624.06
2023-02-28T13:34:22.940Z,102619.81
2023-02-28T13:36:49.308Z,102626.34
2023-02-28T13:39:35.378Z,102621.47
2023-02-28T13:42:22.421Z,102617.34
2023-02-28T13:45:07.540Z,102615.13
2023-02-28T13:47:33.913Z,102620.03
2023-02-28T13:50:23.318Z,102613.38
2023-02-28T13:52:54.104Z,102614.03
2023-02-28T13:55:23.453Z,102604.28
2023-02-28T13:57:50.346Z,102600.31
2023-02-28T14:00:35.586Z,102589.38
2023-02-28T14:03:06.693Z,102596.19
2023-02-28T14:05:33.633Z,102590.56
2023-02-28T14:08:00.580Z,102597.75
2023-02-28T14:10:31.391Z,102595.94
2023-02-28T14:12:59.102Z,102597.09
2023-02-28T14:15:29.408Z,102593.06
2023-02-28T14:17:55.972Z,102601.94
2023-02-28T14:20:22.686Z,102595.06
2023-02-28T14:22:55.391Z,102594.53
2023-02-28T14:25:32.566Z,102604.06
2023-02-28T14:28:13.765Z,102593.59
2023-02-28T14:31:01.231Z,102599.53
2023-02-28T14:33:27.599Z,102598.41
2023-02-28T14:36:17.018Z,102608.22
2023-02-28T14:38:44.544Z,102591.91
2023-02-28T14:41:16.060Z,102589.88
2023-02-28T14:43:49.109Z,102598.66
2023-02-28T14:46:15.522Z,102588.38
2023-02-28T14:48:42.070Z,102588.06
2023-02-28T14:51:14.420Z,102592.72
2023-02-28T14:53:40.812Z,102584.94
2023-02-28T14:56:07.185Z,102586.59
2023-02-28T14:58:33.733Z,102580.59
2023-02-28T15:01:01.079Z,102592.94
2023-02-28T15:03:30.044Z,102581.50
2023-02-28T15:05:57.076Z,102590.03
2023-02-28T15:08:23.433Z,102588.78
2023-02-28T15:10:53.966Z,102587.00
2023-02-28T15:13:20.284Z,102573.31
2023-02-28T15:16:05.628Z,102571.44
2023-02-28T15:18:32.276Z,102573.69
2023-02-28T15:20:59.584Z,102578.31
2023-02-28T15:23:25.899Z,102581.47
2023-02-28T15:25:52.243Z,102583.50
2023-02-28T15:28:19.515Z,102577.44
2023-02-28T15:30:56.427Z,102573.16
2023-02-28T15:33:23.713Z,102573.31
2023-02-28T15:35:50.092Z,102570.94
2023-02-28T15:38:22.621Z,102563.91
2023-02-28T15:40:58.258Z,102569.69
2023-02-28T15:43:28.568Z,102573.69
2023-02-28T15:46:08.355Z,102566.66
2023-02-28T15:48:45.161Z,102566.38
2023-02-28T15:51:24.886Z,102574.06
2023-02-28T15:53:52.154Z,102575.19
2023-02-28T15:56:23.502Z,102571.22
2023-02-28T15:58:49.816Z,102575.19
2023-02-28T16:01:30.974Z,102572.19
2023-02-28T16:03:58.890Z,102566.91
2023-02-28T16:06:34.189Z,102571.53
2023-02-28T16:09:00.497Z,102569.06
2023-02-28T16:11:27.011Z,102578.47
2023-02-28T16:13:53.431Z,102580.97
2023-02-28T16:16:20.367Z,102575.97
2023-02-28T16:18:46.768Z,102585.13
2023-02-28T16:21:13.075Z,102577.94
2023-02-28T16:23:39.409Z,102582.38
2023-02-28T16:26:05.909Z,102575.84
2023-02-28T16:28:33.398Z,102575.44
2023-02-28T16:31:03.659Z,102569.25
2023-02-28T16:33:30.802Z,102584.50
2023-02-28T16:35:57.133Z,102582.31
2023-02-28T16:38:25.746Z,102580.69
2023-02-28T16:40:52.083Z,102583.28
2023-02-28T16:43:19.112Z,102573.91
2023-02-28T16:45:45.491Z,102578.81
2023-02-28T16:48:12.200Z,102576.63
2023-02-28T16:50:38.536Z,102578.69
2023-02-28T16:53:04.880Z,102577.78
2023-02-28T16:55:31.228Z,102580.94
2023-02-28T16:57:58.312Z,102578.31
2023-02-28T17:00:24.674Z,102583.19
2023-02-28T17:02:51.715Z,102579.84
2023-02-28T17:05:19.577Z,102582.56
2023-02-28T17:07:45.905Z,102580.94
2023-02-28T17:10:12.228Z,102582.16
2023-02-28T17:12:38.565Z,102587.16
2023-02-28T17:15:05.049Z,102587.34
2023-02-28T17:17:32.125Z,102591.44
2023-02-28T17:19:58.476Z,102582.94
2023-02-28T17:22:26.810Z,102595.84
2023-02-28T17:24:56.463Z,102589.31
2023-02-28T17:27:22.833Z,102593.41
2023-02-28T17:29:49.147Z,102592.66
2023-02-28T17:32:18.363Z,102604.06
2023-02-28T17:34:46.660Z,102602.56
2023-02-28T17:37:13.015Z,102602.56
2023-02-28T17:39:39.328Z,102603.75
2023-02-28T17:42:05.667Z,102606.66
2023-02-28T17:44:32.004Z,102606.34
2023-02-28T17:46:58.458Z,102599.22
2023-02-28T17:49:24.781Z,102606.34
2023-02-28T17:51:51.608Z,102612.44
2023-02-28T17:54:19.157Z,102608.13
2023-02-28T17:56:45.576Z,102601.19
2023-02-28T17:59:11.887Z,102608.50
2023-02-28T18:01:38.229Z,102607.59
2023-02-28T18:04:04.620Z,102609.13
2023-02-28T18:06:31.193Z,102604.25
2023-02-28T18:08:57.728Z,102607.41
2023-02-28T18:11:24.239Z,102609.50
2023-02-28T18:13:51.479Z,102611.47
2023-02-28T18:16:18.031Z,102608.88
2023-02-28T18:18:44.474Z,102604.00
2023-02-28T18:21:11.374Z,102610.06
2023-02-28T18:23:37.728Z,102609.31
2023-02-28T18:26:07.573Z,102599.94
2023-02-28T18:28:34.799Z,102609.31
2023-02-28T18:31:07.540Z,102619.34
2023-02-28T18:33:33.931Z,102616.47
2023-02-28T18:36:00.330Z,102619.91
2023-02-28T18:38:26.692Z,102623.03
2023-02-28T18:40:53.848Z,102626.34
2023-02-28T18:43:20.202Z,102622.09
2023-02-28T18:45:46.539Z,102624.81
2023-02-28T18:48:14.892Z,102620.25
2023-02-28T18:50:42.033Z,102624.03
2023-02-28T18:53:08.365Z,102628.56
2023-02-28T18:55:34.758Z,102633.09
2023-02-28T18:58:01.095Z,102634.63
2023-02-28T19:00:27.503Z,102629.00
2023-02-28T19:02:53.954Z,102636.50
2023-02-28T19:05:20.377Z,102649.97
2023-02-28T19:07:46.732Z,102641.66
2023-02-28T19:10:13.442Z,102637.59
2023-02-28T19:12:39.971Z,102629.28
2023-02-28T19:15:06.545Z,102628.25
2023-02-28T19:17:33.165Z,102621.69
2023-02-28T19:19:59.527Z,102623.38
2023-02-28T19:22:26.131Z,102621.00
2023-02-28T19:24:52.511Z,102624.31
2023-02-28T19:27:19.670Z,102624.44
2023-02-28T19:29:49.784Z,102623.06
2023-02-28T19:32:16.369Z,102622.47
2023-02-28T19:34:42.923Z,102621.69
2023-02-28T19:37:09.584Z,102630.34
2023-02-28T19:39:41.442Z,102639.75
2023-02-28T19:42:11.393Z,102636.09
2023-02-28T19:44:37.760Z,102644.00
2023-02-28T19:47:04.107Z,102645.38
2023-02-28T19:49:30.487Z,102639.63
2023-02-28T19:51:56.805Z,102640.97
2023-02-28T19:54:23.441Z,102640.22
2023-02-28T19:56:49.763Z,102640.66
2023-02-28T19:59:21.206Z,102636.28
2023-02-28T20:01:48.859Z,102638.41
2023-02-28T20:04:15.237Z,102634.63
2023-02-28T20:06:41.582Z,102647.22
2023-02-28T20:09:07.913Z,102645.22
2023-02-28T20:11:34.244Z,102641.59
2023-02-28T20:14:05.202Z,102635.38
2023-02-28T20:16:32.045Z,102630.84
2023-02-28T20:18:58.447Z,102637.22
2023-02-28T20:21:24.773Z,102642.84
2023-02-28T20:23:51.106Z,102632.06
2023-02-28T20:26:20.007Z,102637.06
2023-02-28T20:28:46.463Z,102647.84
2023-02-28T20:31:16.746Z,102642.09
2023-02-28T20:33:45.593Z,102642.09
2023-02-28T20:36:13.454Z,102642.09
2023-02-28T20:38:39.866Z,102642.09
2023-02-28T20:41:06.953Z,102637.81
2023-02-28T20:43:33.386Z,102636.31
2023-02-28T20:46:03.308Z,102637.06
2023-02-28T20:48:30.106Z,102624.81
2023-02-28T20:50:56.628Z,102629.81
2023-02-28T20:53:24.194Z,102619.66
2023-02-28T20:55:56.908Z,102621.03
2023-02-28T20:58:23.722Z,102607.97
2023-02-28T21:00:50.040Z,102624.50
2023-02-28T21:03:24.024Z,102615.72
2023-02-28T21:05:50.340Z,102614.22
2023-02-28T21:08:16.802Z,102612.69
2023-02-28T21:10:43.273Z,102605.44
2023-02-28T21:13:09.812Z,102605.44
2023-02-28T21:15:39.082Z,102614.66
2023-02-28T21:18:05.548Z,102608.16
2023-02-28T21:20:31.960Z,102616.03
2023-02-28T21:22:58.356Z,102613.16
2023-02-28T21:25:25.105Z,102612.38
2023-02-28T21:27:55.523Z,102614.13
2023-02-28T21:30:22.037Z,102608.63
2023-02-28T21:32:48.363Z,102617.59
2023-02-28T21:35:14.934Z,102607.47
2023-02-28T21:37:41.285Z,102616.66
2023-02-28T21:40:08.425Z,102610.13
2023-02-28T21:42:34.787Z,102617.56
2023-02-28T21:45:01.770Z,102609.09
2023-02-28T21:47:28.809Z,102603.31
2023-02-28T21:49:55.268Z,102607.56
2023-02-28T21:52:21.941Z,102612.56
2023-02-28T21:54:48.765Z,102618.94
2023-02-28T21:57:15.997Z,102614.53
2023-02-28T21:59:42.762Z,102624.53
2023-02-28T22:02:10.601Z,102623.03
2023-02-28T22:04:36.932Z,102634.41
2023-02-28T22:07:03.260Z,102629.25
2023-02-28T22:09:29.698Z,102626.22
2023-02-28T22:11:56.245Z,102627.59
2023-02-28T22:14:22.612Z,102620.94
2023-02-28T22:16:52.498Z,102628.81
2023-02-28T22:19:20.037Z,102636.69
2023-02-28T22:21:47.316Z,102620.63
2023-02-28T22:24:14.593Z,102630.63
2023-02-28T22:26:41.081Z,102629.09
2023-02-28T22:29:07.630Z,102632.63
2023-02-28T22:31:34.443Z,102623.78
2023-02-28T22:34:01.776Z,102627.44
2023-02-28T22:36:28.587Z,102627.44
2023-02-28T22:38:55.161Z,102638.78
2023-02-28T22:41:22.158Z,102640.91
2023-02-28T22:43:55.249Z,102640.00
2023-02-28T22:46:21.706Z,102639.22
2023-02-28T22:48:48.785Z,102642.72
2023-02-28T22:51:15.802Z,102638.31
2023-02-28T22:53:42.314Z,102633.94
2023-02-28T22:56:09.002Z,102633.94
2023-02-28T22:58:35.590Z,102632.41
2023-02-28T23:01:11.964Z,102642.44
2023-02-28T23:03:38.327Z,102649.41
2023-02-28T23:06:11.987Z,102648.63
2023-02-28T23:08:38.334Z,102656.50
2023-02-28T23:11:04.929Z,102653.63
2023-02-28T23:13:31.270Z,102657.13
2023-02-28T23:15:57.618Z,102660.75
2023-02-28T23:18:23.951Z,102659.38
2023-02-28T23:20:50.265Z,102666.81
2023-02-28T23:23:16.615Z,102663.94
2023-02-28T23:25:42.935Z,102666.19
2023-02-28T23:28:10.219Z,102669.97
2023-02-28T23:30:38.481Z,102677.28
2023-02-28T23:33:05.307Z,102677.28
2023-02-28T23:35:32.160Z,102671.66
2023-02-28T23:37:59.231Z,102676.66
2023-02-28T23:40:25.561Z,102680.31
2023-02-28T23:42:52.084Z,102676.03
2023-02-28T23:45:18.584Z,102674.69
2023-02-28T23:47:45.148Z,102666.06
2023-02-28T23:50:11.494Z,102666.06
2023-02-28T23:52:37.838Z,102661.66
2023-02-28T23:55:04.176Z,102658.78
2023-02-28T23:57:30.495Z,102663.03
2023-02-28T23:59:56.846Z,102647.88
